sensor_id;sensor_type;location;lat;lon;timestamp;P1;durP1;ratioP1;P2;durP2;ratioP2
19867;SDS011;10096;51.112;6.776;2022-08-05T00:01:41;5.15;;;3.90;;
19867;SDS011;10096;51.112;6.776;2022-08-05T00:04:07;6.03;;;4.45;;
19867;SDS011;10096;51.112;6.776;2022-08-05T00:06:34;4.78;;;4.22;;
19867;SDS011;10096;51.112;6.776;2022-08-05T00:09:02;7.22;;;4.60;;
19867;SDS011;10096;51.112;6.776;2022-08-05T00:11:30;6.00;;;4.05;;
19867;SDS011;10096;51.112;6.776;2022-08-05T00:13:56;4.55;;;3.72;;
19867;SDS011;10096;51.112;6.776;2022-08-05T00:16:25;4.22;;;3.78;;
19867;SDS011;10096;51.112;6.776;2022-08-05T00:18:52;6.57;;;4.20;;
19867;SDS011;10096;51.112;6.776;2022-08-05T00:21:19;7.43;;;4.00;;
19867;SDS011;10096;51.112;6.776;2022-08-05T00:23:46;6.35;;;4.32;;
19867;SDS011;10096;51.112;6.776;2022-08-05T00:26:13;7.32;;;4.50;;
19867;SDS011;10096;51.112;6.776;2022-08-05T00:28:41;5.25;;;4.32;;
19867;SDS011;10096;51.112;6.776;2022-08-05T00:31:08;5.22;;;4.22;;
19867;SDS011;10096;51.112;6.776;2022-08-05T00:33:37;6.65;;;4.63;;
19867;SDS011;10096;51.112;6.776;2022-08-05T00:36:04;6.68;;;4.28;;
19867;SDS011;10096;51.112;6.776;2022-08-05T00:38:32;5.00;;;3.80;;
19867;SDS011;10096;51.112;6.776;2022-08-05T00:40:59;5.15;;;4.07;;
19867;SDS011;10096;51.112;6.776;2022-08-05T00:43:26;5.75;;;4.45;;
19867;SDS011;10096;51.112;6.776;2022-08-05T00:45:54;5.30;;;3.72;;
19867;SDS011;10096;51.112;6.776;2022-08-05T00:48:21;4.90;;;3.80;;
19867;SDS011;10096;51.112;6.776;2022-08-05T00:50:50;6.38;;;3.95;;
19867;SDS011;10096;51.112;6.776;2022-08-05T00:53:18;4.43;;;3.97;;
19867;SDS011;10096;51.112;6.776;2022-08-05T00:55:47;6.60;;;4.30;;
19867;SDS011;10096;51.112;6.776;2022-08-05T00:58:14;6.25;;;4.03;;
19867;SDS011;10096;51.112;6.776;2022-08-05T01:00:42;4.63;;;4.10;;
19867;SDS011;10096;51.112;6.776;2022-08-05T01:03:09;5.57;;;4.85;;
19867;SDS011;10096;51.112;6.776;2022-08-05T01:05:37;6.38;;;4.40;;
19867;SDS011;10096;51.112;6.776;2022-08-05T01:08:05;5.82;;;4.65;;
19867;SDS011;10096;51.112;6.776;2022-08-05T01:10:37;6.47;;;4.40;;
19867;SDS011;10096;51.112;6.776;2022-08-05T01:13:12;6.82;;;4.93;;
19867;SDS011;10096;51.112;6.776;2022-08-05T01:15:46;7.50;;;5.10;;
19867;SDS011;10096;51.112;6.776;2022-08-05T01:18:21;7.47;;;4.70;;
19867;SDS011;10096;51.112;6.776;2022-08-05T01:20:52;5.68;;;4.85;;
19867;SDS011;10096;51.112;6.776;2022-08-05T01:23:37;5.80;;;4.57;;
19867;SDS011;10096;51.112;6.776;2022-08-05T01:26:17;7.32;;;5.28;;
19867;SDS011;10096;51.112;6.776;2022-08-05T01:28:57;6.03;;;4.97;;
19867;SDS011;10096;51.112;6.776;2022-08-05T01:31:29;6.80;;;5.28;;
19867;SDS011;10096;51.112;6.776;2022-08-05T01:34:02;6.85;;;5.13;;
19867;SDS011;10096;51.112;6.776;2022-08-05T01:36:35;5.95;;;5.38;;
19867;SDS011;10096;51.112;6.776;2022-08-05T01:39:06;9.10;;;5.97;;
19867;SDS011;10096;51.112;6.776;2022-08-05T01:41:33;7.85;;;6.00;;
19867;SDS011;10096;51.112;6.776;2022-08-05T01:44:03;7.25;;;6.13;;
19867;SDS011;10096;51.112;6.776;2022-08-05T01:46:33;8.70;;;6.15;;
19867;SDS011;10096;51.112;6.776;2022-08-05T01:49:01;8.40;;;6.45;;
19867;SDS011;10096;51.112;6.776;2022-08-05T01:51:30;8.13;;;6.68;;
19867;SDS011;10096;51.112;6.776;2022-08-05T01:54:01;8.73;;;6.70;;
19867;SDS011;10096;51.112;6.776;2022-08-05T01:56:31;10.88;;;7.15;;
19867;SDS011;10096;51.112;6.776;2022-08-05T01:59:05;10.20;;;6.80;;
19867;SDS011;10096;51.112;6.776;2022-08-05T02:01:35;7.40;;;6.60;;
19867;SDS011;10096;51.112;6.776;2022-08-05T02:04:03;8.57;;;7.22;;
19867;SDS011;10096;51.112;6.776;2022-08-05T02:06:31;8.73;;;6.90;;
19867;SDS011;10096;51.112;6.776;2022-08-05T02:08:59;8.63;;;7.32;;
19867;SDS011;10096;51.112;6.776;2022-08-05T02:11:29;9.82;;;7.30;;
19867;SDS011;10096;51.112;6.776;2022-08-05T02:14:10;8.25;;;6.97;;
19867;SDS011;10096;51.112;6.776;2022-08-05T02:16:39;7.85;;;7.05;;
19867;SDS011;10096;51.112;6.776;2022-08-05T02:19:12;7.57;;;6.80;;
19867;SDS011;10096;51.112;6.776;2022-08-05T02:21:46;10.60;;;6.97;;
19867;SDS011;10096;51.112;6.776;2022-08-05T02:24:17;8.70;;;7.75;;
19867;SDS011;10096;51.112;6.776;2022-08-05T02:26:48;7.95;;;7.15;;
19867;SDS011;10096;51.112;6.776;2022-08-05T02:29:20;7.95;;;7.13;;
19867;SDS011;10096;51.112;6.776;2022-08-05T02:31:49;8.55;;;7.70;;
19867;SDS011;10096;51.112;6.776;2022-08-05T02:34:19;8.15;;;7.45;;
19867;SDS011;10096;51.112;6.776;2022-08-05T02:36:47;7.78;;;6.97;;
19867;SDS011;10096;51.112;6.776;2022-08-05T02:39:16;10.82;;;7.65;;
19867;SDS011;10096;51.112;6.776;2022-08-05T02:41:46;9.02;;;7.88;;
19867;SDS011;10096;51.112;6.776;2022-08-05T02:44:13;9.80;;;7.78;;
19867;SDS011;10096;51.112;6.776;2022-08-05T02:46:44;9.73;;;8.48;;
19867;SDS011;10096;51.112;6.776;2022-08-05T02:49:13;12.70;;;9.73;;
19867;SDS011;10096;51.112;6.776;2022-08-05T02:51:41;13.90;;;9.57;;
19867;SDS011;10096;51.112;6.776;2022-08-05T02:54:10;9.85;;;8.82;;
19867;SDS011;10096;51.112;6.776;2022-08-05T02:56:39;10.10;;;9.00;;
19867;SDS011;10096;51.112;6.776;2022-08-05T02:59:08;10.25;;;9.15;;
19867;SDS011;10096;51.112;6.776;2022-08-05T03:01:37;11.38;;;10.32;;
19867;SDS011;10096;51.112;6.776;2022-08-05T03:04:10;12.05;;;10.85;;
19867;SDS011;10096;51.112;6.776;2022-08-05T03:06:39;15.05;;;13.43;;
19867;SDS011;10096;51.112;6.776;2022-08-05T03:09:10;21.73;;;16.40;;
19867;SDS011;10096;51.112;6.776;2022-08-05T03:11:40;21.58;;;18.95;;
19867;SDS011;10096;51.112;6.776;2022-08-05T03:14:10;28.10;;;23.73;;
19867;SDS011;10096;51.112;6.776;2022-08-05T03:16:37;31.60;;;27.73;;
19867;SDS011;10096;51.112;6.776;2022-08-05T03:19:04;31.40;;;27.88;;
19867;SDS011;10096;51.112;6.776;2022-08-05T03:21:33;32.20;;;26.67;;
19867;SDS011;10096;51.112;6.776;2022-08-05T03:24:00;34.78;;;28.52;;
19867;SDS011;10096;51.112;6.776;2022-08-05T03:26:28;34.85;;;30.13;;
19867;SDS011;10096;51.112;6.776;2022-08-05T03:28:55;32.28;;;28.50;;
19867;SDS011;10096;51.112;6.776;2022-08-05T03:31:23;33.45;;;29.95;;
19867;SDS011;10096;51.112;6.776;2022-08-05T03:33:51;30.77;;;27.48;;
19867;SDS011;10096;51.112;6.776;2022-08-05T03:36:18;31.95;;;28.55;;
19867;SDS011;10096;51.112;6.776;2022-08-05T03:38:47;35.72;;;29.85;;
19867;SDS011;10096;51.112;6.776;2022-08-05T03:41:14;34.38;;;30.55;;
19867;SDS011;10096;51.112;6.776;2022-08-05T03:43:42;36.83;;;30.80;;
19867;SDS011;10096;51.112;6.776;2022-08-05T03:46:08;36.53;;;32.20;;
19867;SDS011;10096;51.112;6.776;2022-08-05T03:48:35;31.83;;;27.38;;
19867;SDS011;10096;51.112;6.776;2022-08-05T03:51:06;32.78;;;28.08;;
19867;SDS011;10096;51.112;6.776;2022-08-05T03:53:39;33.38;;;28.42;;
19867;SDS011;10096;51.112;6.776;2022-08-05T03:56:16;30.20;;;26.23;;
19867;SDS011;10096;51.112;6.776;2022-08-05T03:58:49;26.38;;;23.35;;
19867;SDS011;10096;51.112;6.776;2022-08-05T04:01:20;29.60;;;22.45;;
19867;SDS011;10096;51.112;6.776;2022-08-05T04:03:49;25.58;;;22.35;;
19867;SDS011;10096;51.112;6.776;2022-08-05T04:06:18;26.50;;;23.30;;
19867;SDS011;10096;51.112;6.776;2022-08-05T04:08:45;24.17;;;21.63;;
19867;SDS011;10096;51.112;6.776;2022-08-05T04:11:13;24.83;;;22.05;;
19867;SDS011;10096;51.112;6.776;2022-08-05T04:13:44;25.55;;;22.10;;
19867;SDS011;10096;51.112;6.776;2022-08-05T04:16:12;25.33;;;21.63;;
19867;SDS011;10096;51.112;6.776;2022-08-05T04:18:39;25.95;;;22.85;;
19867;SDS011;10096;51.112;6.776;2022-08-05T04:21:07;24.23;;;21.83;;
19867;SDS011;10096;51.112;6.776;2022-08-05T04:23:34;27.50;;;22.80;;
19867;SDS011;10096;51.112;6.776;2022-08-05T04:26:01;24.38;;;20.40;;
19867;SDS011;10096;51.112;6.776;2022-08-05T04:28:30;23.50;;;21.00;;
19867;SDS011;10096;51.112;6.776;2022-08-05T04:30:57;24.23;;;21.45;;
19867;SDS011;10096;51.112;6.776;2022-08-05T04:33:25;23.25;;;20.77;;
19867;SDS011;10096;51.112;6.776;2022-08-05T04:35:52;22.13;;;19.88;;
19867;SDS011;10096;51.112;6.776;2022-08-05T04:38:19;21.75;;;19.55;;
19867;SDS011;10096;51.112;6.776;2022-08-05T04:40:46;24.27;;;20.52;;
19867;SDS011;10096;51.112;6.776;2022-08-05T04:43:13;21.10;;;18.98;;
19867;SDS011;10096;51.112;6.776;2022-08-05T04:45:41;23.55;;;21.25;;
19867;SDS011;10096;51.112;6.776;2022-08-05T04:48:09;24.92;;;22.15;;
19867;SDS011;10096;51.112;6.776;2022-08-05T04:50:38;25.48;;;21.58;;
19867;SDS011;10096;51.112;6.776;2022-08-05T04:53:06;23.33;;;20.98;;
19867;SDS011;10096;51.112;6.776;2022-08-05T04:55:34;25.33;;;22.70;;
19867;SDS011;10096;51.112;6.776;2022-08-05T04:58:02;24.75;;;22.05;;
19867;SDS011;10096;51.112;6.776;2022-08-05T05:00:30;23.88;;;21.38;;
19867;SDS011;10096;51.112;6.776;2022-08-05T05:02:58;23.90;;;21.33;;
19867;SDS011;10096;51.112;6.776;2022-08-05T05:05:25;23.33;;;20.80;;
19867;SDS011;10096;51.112;6.776;2022-08-05T05:07:53;22.58;;;20.15;;
19867;SDS011;10096;51.112;6.776;2022-08-05T05:10:20;23.63;;;20.98;;
19867;SDS011;10096;51.112;6.776;2022-08-05T05:12:47;23.67;;;21.38;;
19867;SDS011;10096;51.112;6.776;2022-08-05T05:15:14;23.92;;;21.52;;
19867;SDS011;10096;51.112;6.776;2022-08-05T05:17:42;24.58;;;22.13;;
19867;SDS011;10096;51.112;6.776;2022-08-05T05:20:12;24.65;;;22.15;;
19867;SDS011;10096;51.112;6.776;2022-08-05T05:22:39;22.95;;;20.63;;
19867;SDS011;10096;51.112;6.776;2022-08-05T05:25:07;22.45;;;20.30;;
19867;SDS011;10096;51.112;6.776;2022-08-05T05:27:34;23.20;;;20.70;;
19867;SDS011;10096;51.112;6.776;2022-08-05T05:30:02;21.95;;;19.63;;
19867;SDS011;10096;51.112;6.776;2022-08-05T05:32:30;22.10;;;19.83;;
19867;SDS011;10096;51.112;6.776;2022-08-05T05:34:57;20.38;;;18.48;;
19867;SDS011;10096;51.112;6.776;2022-08-05T05:37:25;21.75;;;19.63;;
19867;SDS011;10096;51.112;6.776;2022-08-05T05:39:52;21.45;;;19.25;;
19867;SDS011;10096;51.112;6.776;2022-08-05T05:42:19;22.20;;;19.98;;
19867;SDS011;10096;51.112;6.776;2022-08-05T05:44:46;22.23;;;19.90;;
19867;SDS011;10096;51.112;6.776;2022-08-05T05:47:13;23.98;;;21.50;;
19867;SDS011;10096;51.112;6.776;2022-08-05T05:49:40;23.60;;;20.33;;
19867;SDS011;10096;51.112;6.776;2022-08-05T05:52:07;22.08;;;19.92;;
19867;SDS011;10096;51.112;6.776;2022-08-05T05:54:35;23.60;;;21.20;;
19867;SDS011;10096;51.112;6.776;2022-08-05T05:57:03;24.08;;;21.75;;
19867;SDS011;10096;51.112;6.776;2022-08-05T05:59:30;26.77;;;24.08;;
19867;SDS011;10096;51.112;6.776;2022-08-05T06:01:57;27.38;;;23.98;;
19867;SDS011;10096;51.112;6.776;2022-08-05T06:04:25;28.88;;;25.48;;
19867;SDS011;10096;51.112;6.776;2022-08-05T06:06:52;28.77;;;25.75;;
19867;SDS011;10096;51.112;6.776;2022-08-05T06:09:19;29.38;;;26.17;;
19867;SDS011;10096;51.112;6.776;2022-08-05T06:11:47;30.60;;;27.27;;
19867;SDS011;10096;51.112;6.776;2022-08-05T06:14:14;32.80;;;29.33;;
19867;SDS011;10096;51.112;6.776;2022-08-05T06:16:41;33.97;;;30.48;;
19867;SDS011;10096;51.112;6.776;2022-08-05T06:19:08;33.70;;;29.05;;
19867;SDS011;10096;51.112;6.776;2022-08-05T06:21:35;31.40;;;28.23;;
19867;SDS011;10096;51.112;6.776;2022-08-05T06:24:02;33.65;;;28.08;;
19867;SDS011;10096;51.112;6.776;2022-08-05T06:26:30;31.48;;;27.50;;
19867;SDS011;10096;51.112;6.776;2022-08-05T06:28:58;29.70;;;26.55;;
19867;SDS011;10096;51.112;6.776;2022-08-05T06:31:26;29.85;;;25.88;;
19867;SDS011;10096;51.112;6.776;2022-08-05T06:33:52;32.10;;;27.55;;
19867;SDS011;10096;51.112;6.776;2022-08-05T06:36:20;32.08;;;27.92;;
19867;SDS011;10096;51.112;6.776;2022-08-05T06:38:47;34.10;;;30.40;;
19867;SDS011;10096;51.112;6.776;2022-08-05T06:41:17;34.28;;;30.30;;
19867;SDS011;10096;51.112;6.776;2022-08-05T06:43:44;45.55;;;35.05;;
19867;SDS011;10096;51.112;6.776;2022-08-05T06:46:13;40.42;;;34.53;;
19867;SDS011;10096;51.112;6.776;2022-08-05T06:48:40;45.65;;;37.47;;
19867;SDS011;10096;51.112;6.776;2022-08-05T06:51:07;44.95;;;35.63;;
19867;SDS011;10096;51.112;6.776;2022-08-05T06:53:34;45.33;;;35.95;;
19867;SDS011;10096;51.112;6.776;2022-08-05T06:56:01;43.97;;;34.90;;
19867;SDS011;10096;51.112;6.776;2022-08-05T06:58:28;40.60;;;36.08;;
19867;SDS011;10096;51.112;6.776;2022-08-05T07:00:57;49.78;;;40.80;;
19867;SDS011;10096;51.112;6.776;2022-08-05T07:03:26;53.13;;;43.67;;
19867;SDS011;10096;51.112;6.776;2022-08-05T07:05:56;53.30;;;42.08;;
19867;SDS011;10096;51.112;6.776;2022-08-05T07:08:23;47.83;;;40.35;;
19867;SDS011;10096;51.112;6.776;2022-08-05T07:10:50;52.00;;;42.70;;
19867;SDS011;10096;51.112;6.776;2022-08-05T07:13:17;49.33;;;39.58;;
19867;SDS011;10096;51.112;6.776;2022-08-05T07:16:01;48.35;;;42.72;;
19867;SDS011;10096;51.112;6.776;2022-08-05T07:18:46;45.33;;;38.38;;
19867;SDS011;10096;51.112;6.776;2022-08-05T07:21:13;51.13;;;42.50;;
19867;SDS011;10096;51.112;6.776;2022-08-05T07:23:40;52.85;;;44.63;;
19867;SDS011;10096;51.112;6.776;2022-08-05T07:26:07;54.53;;;45.88;;
19867;SDS011;10096;51.112;6.776;2022-08-05T07:28:34;51.60;;;46.13;;
19867;SDS011;10096;51.112;6.776;2022-08-05T07:31:01;54.63;;;47.13;;
19867;SDS011;10096;51.112;6.776;2022-08-05T07:33:28;63.90;;;49.85;;
19867;SDS011;10096;51.112;6.776;2022-08-05T07:35:56;56.58;;;48.50;;
19867;SDS011;10096;51.112;6.776;2022-08-05T07:38:26;57.40;;;47.72;;
19867;SDS011;10096;51.112;6.776;2022-08-05T07:40:53;56.75;;;47.53;;
19867;SDS011;10096;51.112;6.776;2022-08-05T07:43:20;55.58;;;46.65;;
19867;SDS011;10096;51.112;6.776;2022-08-05T07:45:47;52.83;;;47.15;;
19867;SDS011;10096;51.112;6.776;2022-08-05T07:48:14;50.28;;;42.85;;
19867;SDS011;10096;51.112;6.776;2022-08-05T07:50:43;47.80;;;40.65;;
19867;SDS011;10096;51.112;6.776;2022-08-05T07:53:12;39.25;;;35.05;;
19867;SDS011;10096;51.112;6.776;2022-08-05T07:55:39;35.80;;;32.05;;
19867;SDS011;10096;51.112;6.776;2022-08-05T07:58:06;28.50;;;25.38;;
19867;SDS011;10096;51.112;6.776;2022-08-05T08:00:33;25.52;;;22.65;;
19867;SDS011;10096;51.112;6.776;2022-08-05T08:03:00;23.58;;;21.25;;
19867;SDS011;10096;51.112;6.776;2022-08-05T08:05:27;18.88;;;16.13;;
19867;SDS011;10096;51.112;6.776;2022-08-05T08:07:55;15.32;;;13.43;;
19867;SDS011;10096;51.112;6.776;2022-08-05T08:10:23;14.40;;;12.13;;
19867;SDS011;10096;51.112;6.776;2022-08-05T08:12:50;15.05;;;12.82;;
19867;SDS011;10096;51.112;6.776;2022-08-05T08:15:17;15.43;;;12.10;;
19867;SDS011;10096;51.112;6.776;2022-08-05T08:17:45;15.85;;;12.18;;
19867;SDS011;10096;51.112;6.776;2022-08-05T08:20:12;16.05;;;12.98;;
19867;SDS011;10096;51.112;6.776;2022-08-05T08:22:39;14.88;;;12.13;;
19867;SDS011;10096;51.112;6.776;2022-08-05T08:25:07;13.18;;;11.73;;
19867;SDS011;10096;51.112;6.776;2022-08-05T08:27:35;14.55;;;12.48;;
19867;SDS011;10096;51.112;6.776;2022-08-05T08:30:03;15.95;;;13.27;;
19867;SDS011;10096;51.112;6.776;2022-08-05T08:32:32;15.32;;;13.13;;
19867;SDS011;10096;51.112;6.776;2022-08-05T08:35:00;12.95;;;11.52;;
19867;SDS011;10096;51.112;6.776;2022-08-05T08:37:27;14.32;;;10.27;;
19867;SDS011;10096;51.112;6.776;2022-08-05T08:39:56;13.32;;;10.25;;
19867;SDS011;10096;51.112;6.776;2022-08-05T08:42:23;12.57;;;11.00;;
19867;SDS011;10096;51.112;6.776;2022-08-05T08:44:53;14.07;;;10.75;;
19867;SDS011;10096;51.112;6.776;2022-08-05T08:47:21;13.88;;;10.93;;
19867;SDS011;10096;51.112;6.776;2022-08-05T08:49:50;12.45;;;10.27;;
19867;SDS011;10096;51.112;6.776;2022-08-05T08:52:18;14.63;;;9.80;;
19867;SDS011;10096;51.112;6.776;2022-08-05T08:54:49;11.65;;;9.70;;
19867;SDS011;10096;51.112;6.776;2022-08-05T08:57:18;12.82;;;9.07;;
19867;SDS011;10096;51.112;6.776;2022-08-05T08:59:46;14.55;;;9.00;;
19867;SDS011;10096;51.112;6.776;2022-08-05T09:02:16;9.85;;;8.25;;
19867;SDS011;10096;51.112;6.776;2022-08-05T09:04:45;9.43;;;7.78;;
19867;SDS011;10096;51.112;6.776;2022-08-05T09:07:13;8.75;;;7.85;;
19867;SDS011;10096;51.112;6.776;2022-08-05T09:09:40;10.02;;;7.30;;
19867;SDS011;10096;51.112;6.776;2022-08-05T09:12:12;10.43;;;7.70;;
19867;SDS011;10096;51.112;6.776;2022-08-05T09:14:39;10.85;;;6.57;;
19867;SDS011;10096;51.112;6.776;2022-08-05T09:17:07;9.27;;;7.20;;
19867;SDS011;10096;51.112;6.776;2022-08-05T09:19:38;9.52;;;7.20;;
19867;SDS011;10096;51.112;6.776;2022-08-05T09:22:04;9.25;;;6.72;;
19867;SDS011;10096;51.112;6.776;2022-08-05T09:24:32;6.63;;;5.72;;
19867;SDS011;10096;51.112;6.776;2022-08-05T09:27:03;7.93;;;5.00;;
19867;SDS011;10096;51.112;6.776;2022-08-05T09:29:37;5.93;;;5.10;;
19867;SDS011;10096;51.112;6.776;2022-08-05T09:32:09;9.57;;;5.57;;
19867;SDS011;10096;51.112;6.776;2022-08-05T09:34:56;8.65;;;5.45;;
19867;SDS011;10096;51.112;6.776;2022-08-05T09:37:25;7.90;;;5.93;;
19867;SDS011;10096;51.112;6.776;2022-08-05T09:39:53;5.82;;;5.22;;
19867;SDS011;10096;51.112;6.776;2022-08-05T09:42:20;7.85;;;4.95;;
19867;SDS011;10096;51.112;6.776;2022-08-05T09:44:50;10.25;;;5.43;;
19867;SDS011;10096;51.112;6.776;2022-08-05T09:47:22;8.65;;;6.05;;
19867;SDS011;10096;51.112;6.776;2022-08-05T09:49:53;6.38;;;4.75;;
19867;SDS011;10096;51.112;6.776;2022-08-05T09:52:22;8.15;;;5.65;;
19867;SDS011;10096;51.112;6.776;2022-08-05T09:54:51;7.53;;;5.55;;
19867;SDS011;10096;51.112;6.776;2022-08-05T09:57:33;8.73;;;5.65;;
19867;SDS011;10096;51.112;6.776;2022-08-05T10:00:05;8.60;;;5.97;;
19867;SDS011;10096;51.112;6.776;2022-08-05T10:02:36;7.65;;;6.00;;
19867;SDS011;10096;51.112;6.776;2022-08-05T10:05:06;8.18;;;5.68;;
19867;SDS011;10096;51.112;6.776;2022-08-05T10:07:42;8.35;;;6.25;;
19867;SDS011;10096;51.112;6.776;2022-08-05T10:10:11;11.00;;;5.63;;
19867;SDS011;10096;51.112;6.776;2022-08-05T10:12:39;6.78;;;5.97;;
19867;SDS011;10096;51.112;6.776;2022-08-05T10:15:20;9.10;;;5.55;;
19867;SDS011;10096;51.112;6.776;2022-08-05T10:18:02;6.78;;;5.10;;
19867;SDS011;10096;51.112;6.776;2022-08-05T10:20:37;7.93;;;5.53;;
19867;SDS011;10096;51.112;6.776;2022-08-05T10:23:08;7.18;;;5.25;;
19867;SDS011;10096;51.112;6.776;2022-08-05T10:25:37;8.13;;;5.07;;
19867;SDS011;10096;51.112;6.776;2022-08-05T10:28:04;6.60;;;4.57;;
19867;SDS011;10096;51.112;6.776;2022-08-05T10:30:31;4.65;;;4.25;;
19867;SDS011;10096;51.112;6.776;2022-08-05T10:32:59;7.50;;;4.07;;
19867;SDS011;10096;51.112;6.776;2022-08-05T10:35:28;5.10;;;4.15;;
19867;SDS011;10096;51.112;6.776;2022-08-05T10:37:56;5.40;;;3.88;;
19867;SDS011;10096;51.112;6.776;2022-08-05T10:40:27;5.18;;;4.20;;
19867;SDS011;10096;51.112;6.776;2022-08-05T10:43:01;7.22;;;4.55;;
19867;SDS011;10096;51.112;6.776;2022-08-05T10:45:34;6.30;;;3.88;;
19867;SDS011;10096;51.112;6.776;2022-08-05T10:51:10;4.63;;;4.18;;
19867;SDS011;10096;51.112;6.776;2022-08-05T10:53:42;7.78;;;5.60;;
19867;SDS011;10096;51.112;6.776;2022-08-05T10:56:17;9.02;;;7.35;;
19867;SDS011;10096;51.112;6.776;2022-08-05T10:58:47;11.63;;;8.52;;
19867;SDS011;10096;51.112;6.776;2022-08-05T11:01:16;9.63;;;8.73;;
19867;SDS011;10096;51.112;6.776;2022-08-05T11:03:59;9.38;;;7.78;;
19867;SDS011;10096;51.112;6.776;2022-08-05T11:06:27;8.73;;;7.82;;
19867;SDS011;10096;51.112;6.776;2022-08-05T11:09:10;9.43;;;8.50;;
19867;SDS011;10096;51.112;6.776;2022-08-05T11:11:45;10.77;;;9.05;;
19867;SDS011;10096;51.112;6.776;2022-08-05T11:14:21;8.95;;;8.05;;
19867;SDS011;10096;51.112;6.776;2022-08-05T11:19:52;11.38;;;9.00;;
19867;SDS011;10096;51.112;6.776;2022-08-05T11:34:00;12.45;;;11.07;;
19867;SDS011;10096;51.112;6.776;2022-08-05T11:36:40;12.20;;;11.00;;
19867;SDS011;10096;51.112;6.776;2022-08-05T11:39:13;11.18;;;10.05;;
19867;SDS011;10096;51.112;6.776;2022-08-05T11:45:05;10.77;;;9.75;;
19867;SDS011;10096;51.112;6.776;2022-08-05T11:47:34;10.98;;;9.85;;
19867;SDS011;10096;51.112;6.776;2022-08-05T11:50:01;10.70;;;9.45;;
19867;SDS011;10096;51.112;6.776;2022-08-05T11:52:29;9.57;;;8.68;;
19867;SDS011;10096;51.112;6.776;2022-08-05T11:54:56;9.35;;;8.55;;
19867;SDS011;10096;51.112;6.776;2022-08-05T11:57:26;7.68;;;6.97;;
19867;SDS011;10096;51.112;6.776;2022-08-05T11:59:54;8.60;;;7.15;;
19867;SDS011;10096;51.112;6.776;2022-08-05T12:02:25;7.43;;;6.20;;
19867;SDS011;10096;51.112;6.776;2022-08-05T12:04:53;6.85;;;6.25;;
19867;SDS011;10096;51.112;6.776;2022-08-05T12:07:20;8.15;;;7.05;;
19867;SDS011;10096;51.112;6.776;2022-08-05T12:09:48;7.45;;;6.70;;
19867;SDS011;10096;51.112;6.776;2022-08-05T12:12:21;8.85;;;7.57;;
19867;SDS011;10096;51.112;6.776;2022-08-05T12:14:55;8.07;;;7.18;;
19867;SDS011;10096;51.112;6.776;2022-08-05T12:17:31;7.95;;;6.18;;
19867;SDS011;10096;51.112;6.776;2022-08-05T12:20:01;8.95;;;7.05;;
19867;SDS011;10096;51.112;6.776;2022-08-05T12:22:32;8.15;;;6.70;;
19867;SDS011;10096;51.112;6.776;2022-08-05T12:24:59;6.78;;;6.18;;
19867;SDS011;10096;51.112;6.776;2022-08-05T12:27:27;9.98;;;6.65;;
19867;SDS011;10096;51.112;6.776;2022-08-05T12:29:59;6.50;;;5.90;;
19867;SDS011;10096;51.112;6.776;2022-08-05T12:32:27;9.95;;;7.82;;
19867;SDS011;10096;51.112;6.776;2022-08-05T12:34:59;8.70;;;6.90;;
19867;SDS011;10096;51.112;6.776;2022-08-05T12:37:27;6.68;;;5.55;;
19867;SDS011;10096;51.112;6.776;2022-08-05T12:39:55;7.15;;;6.45;;
19867;SDS011;10096;51.112;6.776;2022-08-05T12:42:22;7.50;;;6.07;;
19867;SDS011;10096;51.112;6.776;2022-08-05T12:44:59;8.68;;;7.55;;
19867;SDS011;10096;51.112;6.776;2022-08-05T12:47:28;7.20;;;5.93;;
19867;SDS011;10096;51.112;6.776;2022-08-05T12:49:58;7.00;;;6.30;;
19867;SDS011;10096;51.112;6.776;2022-08-05T12:52:26;7.22;;;5.78;;
19867;SDS011;10096;51.112;6.776;2022-08-05T12:54:53;5.88;;;5.10;;
19867;SDS011;10096;51.112;6.776;2022-08-05T12:57:23;6.32;;;4.90;;
19867;SDS011;10096;51.112;6.776;2022-08-05T12:59:50;5.05;;;4.53;;
19867;SDS011;10096;51.112;6.776;2022-08-05T13:02:18;6.13;;;5.53;;
19867;SDS011;10096;51.112;6.776;2022-08-05T13:04:48;5.30;;;4.13;;
19867;SDS011;10096;51.112;6.776;2022-08-05T13:07:18;7.20;;;4.88;;
19867;SDS011;10096;51.112;6.776;2022-08-05T13:09:49;3.80;;;3.50;;
19867;SDS011;10096;51.112;6.776;2022-08-05T13:12:17;6.25;;;3.58;;
19867;SDS011;10096;51.112;6.776;2022-08-05T13:14:46;4.53;;;3.65;;
19867;SDS011;10096;51.112;6.776;2022-08-05T13:17:16;5.63;;;4.15;;
19867;SDS011;10096;51.112;6.776;2022-08-05T13:19:58;5.90;;;3.85;;
19867;SDS011;10096;51.112;6.776;2022-08-05T13:22:27;4.60;;;4.20;;
19867;SDS011;10096;51.112;6.776;2022-08-05T13:24:55;5.45;;;3.92;;
19867;SDS011;10096;51.112;6.776;2022-08-05T13:27:23;5.22;;;3.42;;
19867;SDS011;10096;51.112;6.776;2022-08-05T13:29:51;4.32;;;3.35;;
19867;SDS011;10096;51.112;6.776;2022-08-05T13:32:18;5.72;;;4.10;;
19867;SDS011;10096;51.112;6.776;2022-08-05T13:34:46;3.97;;;3.55;;
19867;SDS011;10096;51.112;6.776;2022-08-05T13:37:13;3.60;;;3.28;;
19867;SDS011;10096;51.112;6.776;2022-08-05T13:39:41;6.30;;;4.35;;
19867;SDS011;10096;51.112;6.776;2022-08-05T13:42:08;6.03;;;4.55;;
19867;SDS011;10096;51.112;6.776;2022-08-05T13:44:36;6.55;;;4.10;;
19867;SDS011;10096;51.112;6.776;2022-08-05T13:47:04;6.53;;;4.40;;
19867;SDS011;10096;51.112;6.776;2022-08-05T13:49:31;5.07;;;4.30;;
19867;SDS011;10096;51.112;6.776;2022-08-05T13:52:08;4.72;;;4.28;;
19867;SDS011;10096;51.112;6.776;2022-08-05T13:54:35;5.20;;;4.55;;
19867;SDS011;10096;51.112;6.776;2022-08-05T13:57:04;6.40;;;4.88;;
19867;SDS011;10096;51.112;6.776;2022-08-05T13:59:31;7.10;;;5.57;;
19867;SDS011;10096;51.112;6.776;2022-08-05T14:01:59;5.47;;;4.53;;
19867;SDS011;10096;51.112;6.776;2022-08-05T14:04:27;5.47;;;4.05;;
19867;SDS011;10096;51.112;6.776;2022-08-05T14:07:13;4.03;;;3.13;;
19867;SDS011;10096;51.112;6.776;2022-08-05T14:09:39;3.75;;;2.70;;
19867;SDS011;10096;51.112;6.776;2022-08-05T14:12:08;3.97;;;3.53;;
19867;SDS011;10096;51.112;6.776;2022-08-05T14:14:35;4.43;;;3.53;;
19867;SDS011;10096;51.112;6.776;2022-08-05T14:17:03;5.40;;;3.13;;
19867;SDS011;10096;51.112;6.776;2022-08-05T14:19:30;2.70;;;2.50;;
19867;SDS011;10096;51.112;6.776;2022-08-05T14:21:57;3.45;;;2.45;;
19867;SDS011;10096;51.112;6.776;2022-08-05T14:24:24;3.92;;;2.53;;
19867;SDS011;10096;51.112;6.776;2022-08-05T14:26:51;4.85;;;3.15;;
19867;SDS011;10096;51.112;6.776;2022-08-05T14:29:19;4.20;;;2.72;;
19867;SDS011;10096;51.112;6.776;2022-08-05T14:31:46;2.80;;;2.60;;
19867;SDS011;10096;51.112;6.776;2022-08-05T14:34:13;4.15;;;2.97;;
19867;SDS011;10096;51.112;6.776;2022-08-05T14:36:40;3.28;;;2.60;;
19867;SDS011;10096;51.112;6.776;2022-08-05T14:39:08;3.30;;;2.75;;
19867;SDS011;10096;51.112;6.776;2022-08-05T14:41:35;3.95;;;2.45;;
19867;SDS011;10096;51.112;6.776;2022-08-05T14:44:04;4.28;;;2.67;;
19867;SDS011;10096;51.112;6.776;2022-08-05T14:46:33;3.03;;;2.60;;
19867;SDS011;10096;51.112;6.776;2022-08-05T14:49:01;5.18;;;3.67;;
19867;SDS011;10096;51.112;6.776;2022-08-05T14:51:29;4.95;;;2.90;;
19867;SDS011;10096;51.112;6.776;2022-08-05T14:53:56;3.80;;;3.50;;
19867;SDS011;10096;51.112;6.776;2022-08-05T14:56:23;3.80;;;3.13;;
19867;SDS011;10096;51.112;6.776;2022-08-05T14:58:50;4.32;;;3.40;;
19867;SDS011;10096;51.112;6.776;2022-08-05T15:01:19;4.28;;;3.10;;
19867;SDS011;10096;51.112;6.776;2022-08-05T15:03:47;5.30;;;3.55;;
19867;SDS011;10096;51.112;6.776;2022-08-05T15:06:14;3.13;;;2.80;;
19867;SDS011;10096;51.112;6.776;2022-08-05T15:08:42;3.70;;;3.30;;